KSDF/SDF METAR and TAF weather

Enter ICAO airport designator
Station Type Date Time Source
KSDF METAR 2020/07/08 21:56 UTC NOAA

KSDF 082156Z 34003KT 10SM FEW045 SCT070 BKN250 30/21 A2990 RMK AO2 TSB2057E00 SLP119 CB DSNT S-SW TS DSIPT T03000211


Station Type Date Time Source
KSDF Decoded METAR 2020/07/08 21:56 UTC NOAA

STANDIFORD FIELD, KY, United States (KSDF) 38-11N 085-44W 146M
Jul 08, 2020 - 05:56 PM EDT / 2020.07.08 2156 UTC
Wind: from the NNW (340 degrees) at 3 MPH (3 KT):0
Visibility: 10 mile(s):0
Sky conditions: mostly cloudy
Weather: Cumulonimbus clouds observed
Temperature: 86.0 F (30.0 C)
Dew Point: 70.0 F (21.1 C)
Relative Humidity: 58%
Pressure (altimeter): 29.9 in. Hg (1012 hPa)
ob: KSDF 082156Z 34003KT 10SM FEW045 SCT070 BKN250 30/21 A2990 RMK AO2 TSB2057E00 SLP119 CB DSNT S-SW TS DSIPT T03000211
cycle: 22

Station Type Date Time Source
KSDF TAF 2020/07/08 20:09 UTC NOAA

TAF
AMD KSDF 082006Z 0820/0924 VRB15G30KT 3SM TSRA BKN035CB
FM082200 VRB10KT P6SM VCTS SCT050CB
FM090100 VRB04KT P6SM FEW060 PROB30 0917/0923 TSRA BKN050CB

Example: see airport list